sensor_id;sensor_type;location;lat;lon;timestamp;pressure;altitude;pressure_sealevel;temperature;humidity
24825;BME280;12910;57.690;11.974;2023-04-15T00:02:19;100764.00;;;8.13;100.00
24825;BME280;12910;57.690;11.974;2023-04-15T00:04:45;100758.03;;;8.12;100.00
24825;BME280;12910;57.690;11.974;2023-04-15T00:07:11;100776.84;;;8.16;100.00
24825;BME280;12910;57.690;11.974;2023-04-15T00:09:36;100772.66;;;8.18;100.00
24825;BME280;12910;57.690;11.974;2023-04-15T00:12:02;100762.28;;;8.11;100.00
24825;BME280;12910;57.690;11.974;2023-04-15T00:14:27;100779.41;;;8.16;100.00
24825;BME280;12910;57.690;11.974;2023-04-15T00:16:53;100781.13;;;8.17;100.00
24825;BME280;12910;57.690;11.974;2023-04-15T00:19:20;100779.47;;;8.17;100.00
24825;BME280;12910;57.690;11.974;2023-04-15T00:21:46;100786.25;;;8.17;100.00
24825;BME280;12910;57.690;11.974;2023-04-15T00:24:12;100786.28;;;8.18;100.00
24825;BME280;12910;57.690;11.974;2023-04-15T00:26:38;100788.81;;;8.18;100.00
24825;BME280;12910;57.690;11.974;2023-04-15T00:29:03;100788.88;;;8.20;100.00
24825;BME280;12910;57.690;11.974;2023-04-15T00:31:30;100769.19;;;8.16;100.00
24825;BME280;12910;57.690;11.974;2023-04-15T00:33:55;100786.34;;;8.20;100.00
24825;BME280;12910;57.690;11.974;2023-04-15T00:36:20;100782.88;;;8.18;100.00
24825;BME280;12910;57.690;11.974;2023-04-15T00:38:46;100777.72;;;8.16;100.00
24825;BME280;12910;57.690;11.974;2023-04-15T00:41:12;100779.53;;;8.20;100.00
24825;BME280;12910;57.690;11.974;2023-04-15T00:43:37;100783.00;;;8.22;100.00
24825;BME280;12910;57.690;11.974;2023-04-15T00:46:03;100787.19;;;8.20;100.00
24825;BME280;12910;57.690;11.974;2023-04-15T00:48:30;100790.56;;;8.19;100.00
24825;BME280;12910;57.690;11.974;2023-04-15T00:50:56;100789.81;;;8.22;100.00
24825;BME280;12910;57.690;11.974;2023-04-15T00:53:22;100788.06;;;8.21;100.00
24825;BME280;12910;57.690;11.974;2023-04-15T00:55:48;100795.75;;;8.22;100.00
24825;BME280;12910;57.690;11.974;2023-04-15T00:58:13;100803.38;;;8.21;100.00
24825;BME280;12910;57.690;11.974;2023-04-15T01:00:39;100788.91;;;8.21;100.00
24825;BME280;12910;57.690;11.974;2023-04-15T01:03:06;100778.53;;;8.15;100.00
24825;BME280;12910;57.690;11.974;2023-04-15T01:05:32;100787.16;;;8.19;100.00
24825;BME280;12910;57.690;11.974;2023-04-15T01:07:57;100794.81;;;8.19;100.00
24825;BME280;12910;57.690;11.974;2023-04-15T01:10:23;100784.50;;;8.16;100.00
24825;BME280;12910;57.690;11.974;2023-04-15T01:12:49;100787.97;;;8.18;100.00
24825;BME280;12910;57.690;11.974;2023-04-15T01:15:14;100781.22;;;8.20;100.00
24825;BME280;12910;57.690;11.974;2023-04-15T01:17:40;100791.50;;;8.23;100.00
24825;BME280;12910;57.690;11.974;2023-04-15T01:20:06;100780.41;;;8.21;100.00
24825;BME280;12910;57.690;11.974;2023-04-15T01:22:34;100787.28;;;8.23;100.00
24825;BME280;12910;57.690;11.974;2023-04-15T01:25:05;100784.75;;;8.25;100.00
24825;BME280;12910;57.690;11.974;2023-04-15T01:27:33;100787.28;;;8.23;100.00
24825;BME280;12910;57.690;11.974;2023-04-15T01:29:59;100780.22;;;8.15;100.00
24825;BME280;12910;57.690;11.974;2023-04-15T01:32:25;100786.09;;;8.12;100.00
24825;BME280;12910;57.690;11.974;2023-04-15T01:34:51;100774.94;;;8.08;100.00
24825;BME280;12910;57.690;11.974;2023-04-15T01:37:16;100781.69;;;8.06;100.00
24825;BME280;12910;57.690;11.974;2023-04-15T01:39:42;100776.44;;;8.02;100.00
24825;BME280;12910;57.690;11.974;2023-04-15T01:42:07;100779.03;;;8.03;100.00
24825;BME280;12910;57.690;11.974;2023-04-15T01:44:32;100774.69;;;7.99;100.00
24825;BME280;12910;57.690;11.974;2023-04-15T01:46:58;100777.13;;;7.96;100.00
24825;BME280;12910;57.690;11.974;2023-04-15T01:49:23;100778.59;;;7.88;100.00
24825;BME280;12910;57.690;11.974;2023-04-15T01:51:49;100771.59;;;7.80;100.00
24825;BME280;12910;57.690;11.974;2023-04-15T01:54:14;100785.34;;;7.86;100.00
24825;BME280;12910;57.690;11.974;2023-04-15T01:56:39;100773.31;;;7.82;100.00
24825;BME280;12910;57.690;11.974;2023-04-15T01:59:05;100768.06;;;7.77;100.00
24825;BME280;12910;57.690;11.974;2023-04-15T02:01:30;100782.66;;;7.81;100.00
24825;BME280;12910;57.690;11.974;2023-04-15T02:03:56;100782.50;;;7.76;100.00
24825;BME280;12910;57.690;11.974;2023-04-15T02:06:21;100788.34;;;7.72;100.00
24825;BME280;12910;57.690;11.974;2023-04-15T02:08:46;100789.34;;;7.77;100.00
24825;BME280;12910;57.690;11.974;2023-04-15T02:11:12;100779.94;;;7.76;100.00
24825;BME280;12910;57.690;11.974;2023-04-15T02:13:37;100790.16;;;7.76;100.00
24825;BME280;12910;57.690;11.974;2023-04-15T02:16:03;100793.72;;;7.82;100.00
24825;BME280;12910;57.690;11.974;2023-04-15T02:18:28;100795.34;;;7.78;100.00
24825;BME280;12910;57.690;11.974;2023-04-15T02:20:54;100797.91;;;7.79;100.00
24825;BME280;12910;57.690;11.974;2023-04-15T02:23:21;100790.25;;;7.79;100.00
24825;BME280;12910;57.690;11.974;2023-04-15T02:25:46;100803.00;;;7.78;100.00
24825;BME280;12910;57.690;11.974;2023-04-15T02:28:12;100799.53;;;7.77;100.00
24825;BME280;12910;57.690;11.974;2023-04-15T02:30:37;100795.25;;;7.76;100.00
24825;BME280;12910;57.690;11.974;2023-04-15T02:33:05;100801.25;;;7.77;100.00
24825;BME280;12910;57.690;11.974;2023-04-15T02:35:31;100799.44;;;7.74;100.00
24825;BME280;12910;57.690;11.974;2023-04-15T02:37:56;100808.94;;;7.78;100.00
24825;BME280;12910;57.690;11.974;2023-04-15T02:40:22;100802.09;;;7.77;100.00
24825;BME280;12910;57.690;11.974;2023-04-15T02:42:47;100803.94;;;7.82;100.00
24825;BME280;12910;57.690;11.974;2023-04-15T02:45:13;100803.72;;;7.75;100.00
24825;BME280;12910;57.690;11.974;2023-04-15T02:47:38;100803.00;;;7.78;100.00
24825;BME280;12910;57.690;11.974;2023-04-15T02:50:09;100811.38;;;7.75;100.00
24825;BME280;12910;57.690;11.974;2023-04-15T02:52:40;100807.94;;;7.73;100.00
24825;BME280;12910;57.690;11.974;2023-04-15T02:55:06;100793.19;;;7.63;100.00
24825;BME280;12910;57.690;11.974;2023-04-15T02:57:32;100821.53;;;7.72;100.00
24825;BME280;12910;57.690;11.974;2023-04-15T02:59:59;100816.50;;;7.75;100.00
24825;BME280;12910;57.690;11.974;2023-04-15T03:02:24;100812.19;;;7.74;100.00
24825;BME280;12910;57.690;11.974;2023-04-15T03:04:50;100814.81;;;7.76;100.00
24825;BME280;12910;57.690;11.974;2023-04-15T03:07:17;100807.94;;;7.73;100.00
24825;BME280;12910;57.690;11.974;2023-04-15T03:09:42;100800.00;;;7.64;100.00
24825;BME280;12910;57.690;11.974;2023-04-15T03:12:08;100819.78;;;7.71;100.00
24825;BME280;12910;57.690;11.974;2023-04-15T03:14:34;100819.78;;;7.71;100.00
24825;BME280;12910;57.690;11.974;2023-04-15T03:16:59;100818.88;;;7.69;100.00
24825;BME280;12910;57.690;11.974;2023-04-15T03:19:25;100827.22;;;7.65;100.00
24825;BME280;12910;57.690;11.974;2023-04-15T03:21:50;100823.69;;;7.60;100.00
24825;BME280;12910;57.690;11.974;2023-04-15T03:24:16;100822.56;;;7.52;100.00
24825;BME280;12910;57.690;11.974;2023-04-15T03:26:41;100801.00;;;7.42;100.00
24825;BME280;12910;57.690;11.974;2023-04-15T03:29:07;100819.22;;;7.53;100.00
24825;BME280;12910;57.690;11.974;2023-04-15T03:31:32;100830.41;;;7.58;100.00
24825;BME280;12910;57.690;11.974;2023-04-15T03:33:57;100826.94;;;7.56;100.00
24825;BME280;12910;57.690;11.974;2023-04-15T03:36:23;100825.31;;;7.58;100.00
24825;BME280;12910;57.690;11.974;2023-04-15T03:38:48;100829.47;;;7.56;100.00
24825;BME280;12910;57.690;11.974;2023-04-15T03:41:14;100826.03;;;7.54;100.00
24825;BME280;12910;57.690;11.974;2023-04-15T03:43:39;100826.94;;;7.56;100.00
24825;BME280;12910;57.690;11.974;2023-04-15T03:46:05;100826.13;;;7.57;100.00
24825;BME280;12910;57.690;11.974;2023-04-15T03:48:30;100837.25;;;7.59;100.00
24825;BME280;12910;57.690;11.974;2023-04-15T03:50:56;100829.41;;;7.53;100.00
24825;BME280;12910;57.690;11.974;2023-04-15T03:53:21;100814.66;;;7.44;100.00
24825;BME280;12910;57.690;11.974;2023-04-15T03:55:46;100833.78;;;7.57;100.00
24825;BME280;12910;57.690;11.974;2023-04-15T03:58:12;100834.44;;;7.51;100.00
24825;BME280;12910;57.690;11.974;2023-04-15T04:00:40;100834.16;;;7.42;100.00
24825;BME280;12910;57.690;11.974;2023-04-15T04:03:06;100833.44;;;7.46;100.00
24825;BME280;12910;57.690;11.974;2023-04-15T04:05:32;100830.94;;;7.47;100.00
24825;BME280;12910;57.690;11.974;2023-04-15T04:07:57;100838.78;;;7.54;100.00
24825;BME280;12910;57.690;11.974;2023-04-15T04:10:23;100838.88;;;7.57;100.00
24825;BME280;12910;57.690;11.974;2023-04-15T04:12:48;100842.16;;;7.53;100.00
24825;BME280;12910;57.690;11.974;2023-04-15T04:15:13;100830.94;;;7.47;100.00
24825;BME280;12910;57.690;11.974;2023-04-15T04:17:39;100840.22;;;7.45;100.00
24825;BME280;12910;57.690;11.974;2023-04-15T04:20:05;100844.50;;;7.46;100.00
24825;BME280;12910;57.690;11.974;2023-04-15T04:22:36;100844.56;;;7.48;100.00
24825;BME280;12910;57.690;11.974;2023-04-15T04:25:01;100841.91;;;7.45;100.00
24825;BME280;12910;57.690;11.974;2023-04-15T04:27:26;100844.31;;;7.40;100.00
24825;BME280;12910;57.690;11.974;2023-04-15T04:29:52;100844.19;;;7.37;100.00
24825;BME280;12910;57.690;11.974;2023-04-15T04:32:17;100841.59;;;7.36;100.00
24825;BME280;12910;57.690;11.974;2023-04-15T04:34:42;100846.81;;;7.39;100.00
24825;BME280;12910;57.690;11.974;2023-04-15T04:37:08;100846.75;;;7.37;100.00
24825;BME280;12910;57.690;11.974;2023-04-15T04:39:33;100851.91;;;7.39;100.00
24825;BME280;12910;57.690;11.974;2023-04-15T04:41:58;100852.72;;;7.38;100.00
24825;BME280;12910;57.690;11.974;2023-04-15T04:44:24;100850.03;;;7.33;100.00
24825;BME280;12910;57.690;11.974;2023-04-15T04:46:49;100841.47;;;7.31;100.00
24825;BME280;12910;57.690;11.974;2023-04-15T04:49:14;100857.88;;;7.39;100.00
24825;BME280;12910;57.690;11.974;2023-04-15T04:51:40;100843.00;;;7.26;100.00
24825;BME280;12910;57.690;11.974;2023-04-15T04:54:05;100863.69;;;7.35;100.00
24825;BME280;12910;57.690;11.974;2023-04-15T04:56:31;100854.16;;;7.29;100.00
24825;BME280;12910;57.690;11.974;2023-04-15T04:58:58;100864.13;;;7.23;100.00
24825;BME280;12910;57.690;11.974;2023-04-15T05:01:23;100866.44;;;7.15;100.00
24825;BME280;12910;57.690;11.974;2023-04-15T05:03:50;100861.66;;;7.25;100.00
24825;BME280;12910;57.690;11.974;2023-04-15T05:06:16;100865.88;;;7.24;100.00
24825;BME280;12910;57.690;11.974;2023-04-15T05:08:41;100857.25;;;7.21;100.00
24825;BME280;12910;57.690;11.974;2023-04-15T05:11:06;100857.25;;;7.21;100.00
24825;BME280;12910;57.690;11.974;2023-04-15T05:13:32;100846.13;;;7.18;100.00
24825;BME280;12910;57.690;11.974;2023-04-15T05:15:57;100859.00;;;7.22;100.00
24825;BME280;12910;57.690;11.974;2023-04-15T05:18:22;100862.47;;;7.24;100.00
24825;BME280;12910;57.690;11.974;2023-04-15T05:20:48;100866.00;;;7.27;100.00
24825;BME280;12910;57.690;11.974;2023-04-15T05:23:14;100847.06;;;7.21;100.00
24825;BME280;12910;57.690;11.974;2023-04-15T05:25:40;100851.34;;;7.22;100.00
24825;BME280;12910;57.690;11.974;2023-04-15T05:28:05;100853.28;;;7.29;100.00
24825;BME280;12910;57.690;11.974;2023-04-15T05:30:30;100855.22;;;7.36;100.00
24825;BME280;12910;57.690;11.974;2023-04-15T05:32:56;100862.16;;;7.40;100.00
24825;BME280;12910;57.690;11.974;2023-04-15T05:35:21;100865.41;;;7.36;100.00
24825;BME280;12910;57.690;11.974;2023-04-15T05:37:49;100866.41;;;7.40;100.00
24825;BME280;12910;57.690;11.974;2023-04-15T05:40:15;100861.00;;;7.30;100.00
24825;BME280;12910;57.690;11.974;2023-04-15T05:42:40;100869.66;;;7.36;100.00
24825;BME280;12910;57.690;11.974;2023-04-15T05:45:06;100863.75;;;7.37;100.00
24825;BME280;12910;57.690;11.974;2023-04-15T05:47:34;100866.41;;;7.40;100.00
24825;BME280;12910;57.690;11.974;2023-04-15T05:50:00;100862.78;;;7.33;100.00
24825;BME280;12910;57.690;11.974;2023-04-15T05:52:25;100869.09;;;7.44;100.00
24825;BME280;12910;57.690;11.974;2023-04-15T05:54:51;100874.25;;;7.46;100.00
24825;BME280;12910;57.690;11.974;2023-04-15T05:57:16;100873.34;;;7.45;100.00
24825;BME280;12910;57.690;11.974;2023-04-15T05:59:42;100869.09;;;7.44;100.00
24825;BME280;12910;57.690;11.974;2023-04-15T06:02:08;100872.47;;;7.43;100.00
24825;BME280;12910;57.690;11.974;2023-04-15T06:04:34;100854.09;;;7.28;100.00
24825;BME280;12910;57.690;11.974;2023-04-15T06:06:59;100882.44;;;7.37;100.00
24825;BME280;12910;57.690;11.974;2023-04-15T06:09:24;100880.50;;;7.30;100.00
24825;BME280;12910;57.690;11.974;2023-04-15T06:11:51;100893.31;;;7.31;100.00
24825;BME280;12910;57.690;11.974;2023-04-15T06:14:16;100890.00;;;7.34;100.00
24825;BME280;12910;57.690;11.974;2023-04-15T06:16:41;100890.25;;;7.42;100.00
24825;BME280;12910;57.690;11.974;2023-04-15T06:19:07;100890.47;;;7.48;100.00
24825;BME280;12910;57.690;11.974;2023-04-15T06:21:32;100889.50;;;7.44;100.00
24825;BME280;12910;57.690;11.974;2023-04-15T06:23:58;100890.41;;;7.46;100.00
24825;BME280;12910;57.690;11.974;2023-04-15T06:26:27;100891.13;;;7.42;100.00
24825;BME280;12910;57.690;11.974;2023-04-15T06:28:52;100896.50;;;7.50;100.00
24825;BME280;12910;57.690;11.974;2023-04-15T06:31:18;100895.47;;;7.45;100.00
24825;BME280;12910;57.690;11.974;2023-04-15T06:33:43;100899.03;;;7.50;100.00
24825;BME280;12910;57.690;11.974;2023-04-15T06:36:09;100879.31;;;7.44;100.00
24825;BME280;12910;57.690;11.974;2023-04-15T06:38:34;100903.38;;;7.53;100.00
24825;BME280;12910;57.690;11.974;2023-04-15T06:40:59;100899.13;;;7.53;100.00
24825;BME280;12910;57.690;11.974;2023-04-15T06:43:25;100902.66;;;7.57;100.00
24825;BME280;12910;57.690;11.974;2023-04-15T06:45:50;100900.22;;;7.60;100.00
24825;BME280;12910;57.690;11.974;2023-04-15T06:48:16;100902.06;;;7.64;100.00
24825;BME280;12910;57.690;11.974;2023-04-15T06:50:42;100902.91;;;7.64;100.00
24825;BME280;12910;57.690;11.974;2023-04-15T06:53:07;100900.22;;;7.60;100.00
24825;BME280;12910;57.690;11.974;2023-04-15T06:55:32;100907.38;;;7.72;100.00
24825;BME280;12910;57.690;11.974;2023-04-15T06:57:58;100903.88;;;7.68;100.00
24825;BME280;12910;57.690;11.974;2023-04-15T07:00:23;100911.63;;;7.71;100.00
24825;BME280;12910;57.690;11.974;2023-04-15T07:02:50;100912.63;;;7.76;100.00
24825;BME280;12910;57.690;11.974;2023-04-15T07:05:15;100910.91;;;7.75;100.00
24825;BME280;12910;57.690;11.974;2023-04-15T07:07:41;100917.75;;;7.76;100.00
24825;BME280;12910;57.690;11.974;2023-04-15T07:10:07;100914.19;;;7.71;100.00
24825;BME280;12910;57.690;11.974;2023-04-15T07:12:32;100915.47;;;7.86;100.00
24825;BME280;12910;57.690;11.974;2023-04-15T07:14:59;100920.88;;;7.95;100.00
24825;BME280;12910;57.690;11.974;2023-04-15T07:17:24;100918.47;;;8.00;100.00
24825;BME280;12910;57.690;11.974;2023-04-15T07:19:50;100916.00;;;8.01;100.00
24825;BME280;12910;57.690;11.974;2023-04-15T07:22:15;100920.47;;;8.08;100.00
24825;BME280;12910;57.690;11.974;2023-04-15T07:24:41;100924.69;;;8.08;100.00
24825;BME280;12910;57.690;11.974;2023-04-15T07:27:06;100919.69;;;8.11;100.00
24825;BME280;12910;57.690;11.974;2023-04-15T07:29:32;100926.38;;;8.07;100.00
24825;BME280;12910;57.690;11.974;2023-04-15T07:31:58;100923.81;;;8.07;100.00
24825;BME280;12910;57.690;11.974;2023-04-15T07:34:23;100918.03;;;8.13;100.00
24825;BME280;12910;57.690;11.974;2023-04-15T07:36:48;100925.75;;;8.15;100.00
24825;BME280;12910;57.690;11.974;2023-04-15T07:39:18;100917.28;;;8.16;100.00
24825;BME280;12910;57.690;11.974;2023-04-15T07:41:44;100920.75;;;8.18;100.00
24825;BME280;12910;57.690;11.974;2023-04-15T07:44:10;100917.94;;;8.10;100.00
24825;BME280;12910;57.690;11.974;2023-04-15T07:46:37;100923.16;;;8.13;100.00
24825;BME280;12910;57.690;11.974;2023-04-15T07:49:03;100924.00;;;8.14;100.00
24825;BME280;12910;57.690;11.974;2023-04-15T07:51:28;100930.97;;;8.18;100.00
24825;BME280;12910;57.690;11.974;2023-04-15T07:53:54;100923.25;;;8.16;100.00
24825;BME280;12910;57.690;11.974;2023-04-15T07:56:20;100945.75;;;8.28;100.00
24825;BME280;12910;57.690;11.974;2023-04-15T07:58:46;100931.34;;;8.30;100.00
24825;BME280;12910;57.690;11.974;2023-04-15T08:01:11;100935.63;;;8.31;100.00
24825;BME280;12910;57.690;11.974;2023-04-15T08:03:37;100941.06;;;8.42;100.00
24825;BME280;12910;57.690;11.974;2023-04-15T08:06:03;100941.72;;;8.36;100.00
24825;BME280;12910;57.690;11.974;2023-04-15T08:08:29;100933.38;;;8.42;100.00
24825;BME280;12910;57.690;11.974;2023-04-15T08:10:54;100943.75;;;8.47;100.00
24825;BME280;12910;57.690;11.974;2023-04-15T08:13:19;100947.31;;;8.52;100.00
24825;BME280;12910;57.690;11.974;2023-04-15T08:15:45;100944.78;;;8.52;100.00
24825;BME280;12910;57.690;11.974;2023-04-15T08:18:11;100946.38;;;8.48;100.00
24825;BME280;12910;57.690;11.974;2023-04-15T08:20:36;100946.44;;;8.50;100.00
24825;BME280;12910;57.690;11.974;2023-04-15T08:23:02;100943.25;;;8.57;100.00
24825;BME280;12910;57.690;11.974;2023-04-15T08:25:27;100946.06;;;8.66;100.00
24825;BME280;12910;57.690;11.974;2023-04-15T08:27:56;100944.47;;;8.70;100.00
24825;BME280;12910;57.690;11.974;2023-04-15T08:30:21;100947.00;;;8.70;100.00
24825;BME280;12910;57.690;11.974;2023-04-15T08:32:50;100946.97;;;8.68;100.00
24825;BME280;12910;57.690;11.974;2023-04-15T08:35:15;100941.75;;;8.64;100.00
24825;BME280;12910;57.690;11.974;2023-04-15T08:37:41;100947.69;;;8.64;100.00
24825;BME280;12910;57.690;11.974;2023-04-15T08:40:07;100947.69;;;8.64;100.00
24825;BME280;12910;57.690;11.974;2023-04-15T08:42:40;100950.13;;;8.60;100.00
24825;BME280;12910;57.690;11.974;2023-04-15T08:45:08;100952.72;;;8.61;100.00
24825;BME280;12910;57.690;11.974;2023-04-15T08:47:37;100953.56;;;8.60;100.00
24825;BME280;12910;57.690;11.974;2023-04-15T08:50:07;100957.06;;;8.64;100.00
24825;BME280;12910;57.690;11.974;2023-04-15T08:52:33;100945.91;;;8.60;100.00
24825;BME280;12910;57.690;11.974;2023-04-15T08:55:01;100958.75;;;8.63;100.00
24825;BME280;12910;57.690;11.974;2023-04-15T08:57:27;100961.44;;;8.68;100.00
24825;BME280;12910;57.690;11.974;2023-04-15T08:59:56;100959.66;;;8.65;100.00
24825;BME280;12910;57.690;11.974;2023-04-15T09:02:22;100963.19;;;8.70;100.00
24825;BME280;12910;57.690;11.974;2023-04-15T09:04:48;100953.06;;;8.73;100.00
24825;BME280;12910;57.690;11.974;2023-04-15T09:07:13;100960.03;;;8.78;100.00
24825;BME280;12910;57.690;11.974;2023-04-15T09:09:39;100955.84;;;8.80;100.00
24825;BME280;12910;57.690;11.974;2023-04-15T09:12:07;100960.75;;;8.73;100.00
24825;BME280;12910;57.690;11.974;2023-04-15T09:14:32;100959.78;;;8.70;100.00
24825;BME280;12910;57.690;11.974;2023-04-15T09:17:02;100967.56;;;8.73;100.00
24825;BME280;12910;57.690;11.974;2023-04-15T09:19:28;100960.03;;;8.78;100.00
24825;BME280;12910;57.690;11.974;2023-04-15T09:21:55;100957.34;;;8.73;100.00
24825;BME280;12910;57.690;11.974;2023-04-15T09:24:21;100960.94;;;8.80;100.00
24825;BME280;12910;57.690;11.974;2023-04-15T09:26:47;100961.19;;;8.89;100.00
24825;BME280;12910;57.690;11.974;2023-04-15T09:29:16;100962.16;;;8.93;100.00
24825;BME280;12910;57.690;11.974;2023-04-15T09:31:42;100964.16;;;9.03;100.00
24825;BME280;12910;57.690;11.974;2023-04-15T09:34:08;100959.34;;;9.15;100.00
24825;BME280;12910;57.690;11.974;2023-04-15T09:39:12;100959.66;;;9.26;100.00
24825;BME280;12910;57.690;11.974;2023-04-15T09:41:38;100945.31;;;9.33;100.00
24825;BME280;12910;57.690;11.974;2023-04-15T09:44:04;100951.59;;;9.44;100.00
24825;BME280;12910;57.690;11.974;2023-04-15T09:46:40;100949.38;;;9.58;100.00
24825;BME280;12910;57.690;11.974;2023-04-15T09:49:08;100948.03;;;9.71;100.00
24825;BME280;12910;57.690;11.974;2023-04-15T09:51:34;100941.31;;;9.76;100.00
24825;BME280;12910;57.690;11.974;2023-04-15T09:53:59;100942.34;;;9.83;100.00
24825;BME280;12910;57.690;11.974;2023-04-15T09:56:33;100944.44;;;10.00;100.00
24825;BME280;12910;57.690;11.974;2023-04-15T09:59:00;100946.47;;;10.13;100.00
24825;BME280;12910;57.690;11.974;2023-04-15T10:01:25;100938.16;;;10.23;100.00
24825;BME280;12910;57.690;11.974;2023-04-15T10:03:52;100941.09;;;10.39;100.00
24825;BME280;12910;57.690;11.974;2023-04-15T10:06:18;100942.91;;;10.43;100.00
24825;BME280;12910;57.690;11.974;2023-04-15T10:08:44;100932.69;;;10.46;100.00
24825;BME280;12910;57.690;11.974;2023-04-15T10:11:11;100931.13;;;10.53;100.00
24825;BME280;12910;57.690;11.974;2023-04-15T10:13:37;100935.66;;;10.65;100.00
24825;BME280;12910;57.690;11.974;2023-04-15T10:16:10;100931.63;;;10.78;100.00
24825;BME280;12910;57.690;11.974;2023-04-15T10:18:37;100919.69;;;10.78;100.00
24825;BME280;12910;57.690;11.974;2023-04-15T10:21:05;100932.81;;;10.94;100.00
24825;BME280;12910;57.690;11.974;2023-04-15T10:23:32;100941.53;;;11.02;100.00
24825;BME280;12910;57.690;11.974;2023-04-15T10:25:58;100931.34;;;11.05;100.00
24825;BME280;12910;57.690;11.974;2023-04-15T10:28:24;100931.50;;;11.14;100.00
24825;BME280;12910;57.690;11.974;2023-04-15T10:30:51;100935.06;;;11.21;100.00
24825;BME280;12910;57.690;11.974;2023-04-15T10:33:20;100933.47;;;11.28;100.00
24825;BME280;12910;57.690;11.974;2023-04-15T10:35:47;100939.59;;;11.34;100.00
24825;BME280;12910;57.690;11.974;2023-04-15T10:38:34;100926.94;;;11.47;100.00
24825;BME280;12910;57.690;11.974;2023-04-15T10:43:51;100917.03;;;11.67;100.00
24825;BME280;12910;57.690;11.974;2023-04-15T10:46:18;100917.25;;;11.81;100.00
24825;BME280;12910;57.690;11.974;2023-04-15T10:48:49;100926.03;;;11.94;100.00
24825;BME280;12910;57.690;11.974;2023-04-15T10:51:15;100923.63;;;12.02;100.00
24825;BME280;12910;57.690;11.974;2023-04-15T10:53:41;100917.72;;;12.10;100.00
24825;BME280;12910;57.690;11.974;2023-04-15T10:56:07;100923.84;;;12.19;100.00
24825;BME280;12910;57.690;11.974;2023-04-15T10:58:41;100915.47;;;12.32;100.00
24825;BME280;12910;57.690;11.974;2023-04-15T11:01:07;100927.66;;;12.45;100.00
24825;BME280;12910;57.690;11.974;2023-04-15T11:03:37;100914.94;;;12.55;100.00
24825;BME280;12910;57.690;11.974;2023-04-15T11:06:04;100922.69;;;12.59;100.00
24825;BME280;12910;57.690;11.974;2023-04-15T11:08:53;100927.97;;;12.72;100.00
24825;BME280;12910;57.690;11.974;2023-04-15T11:11:19;100921.19;;;12.77;100.00
24825;BME280;12910;57.690;11.974;2023-04-15T11:13:49;100926.41;;;12.85;100.00
24825;BME280;12910;57.690;11.974;2023-04-15T11:16:15;100926.44;;;12.88;100.00
24825;BME280;12910;57.690;11.974;2023-04-15T11:18:41;100925.59;;;12.89;100.00
24825;BME280;12910;57.690;11.974;2023-04-15T11:21:07;100927.34;;;12.90;100.00
24825;BME280;12910;57.690;11.974;2023-04-15T11:23:38;100922.19;;;12.91;100.00
24825;BME280;12910;57.690;11.974;2023-04-15T11:26:07;100915.38;;;12.92;100.00
24825;BME280;12910;57.690;11.974;2023-04-15T11:28:37;100920.56;;;12.97;100.00
24825;BME280;12910;57.690;11.974;2023-04-15T11:31:16;100929.16;;;13.00;100.00
24825;BME280;12910;57.690;11.974;2023-04-15T11:33:46;100930.97;;;13.07;100.00
24825;BME280;12910;57.690;11.974;2023-04-15T11:36:17;100918.94;;;13.06;100.00
24825;BME280;12910;57.690;11.974;2023-04-15T11:38:43;100926.75;;;13.14;100.00
24825;BME280;12910;57.690;11.974;2023-04-15T11:41:10;100919.88;;;13.15;100.00
24825;BME280;12910;57.690;11.974;2023-04-15T11:43:35;100924.22;;;13.19;100.00
24825;BME280;12910;57.690;11.974;2023-04-15T11:46:01;100929.47;;;13.28;100.00
24825;BME280;12910;57.690;11.974;2023-04-15T11:48:30;100927.78;;;13.32;100.00
24825;BME280;12910;57.690;11.974;2023-04-15T11:53:38;100922.06;;;13.61;100.00
24825;BME280;12910;57.690;11.974;2023-04-15T11:56:05;100928.25;;;13.80;100.00
24825;BME280;12910;57.690;11.974;2023-04-15T11:58:34;100935.19;;;13.93;100.00
24825;BME280;12910;57.690;11.974;2023-04-15T12:01:02;100930.06;;;13.96;100.00
24825;BME280;12910;57.690;11.974;2023-04-15T12:03:45;100931.00;;;14.08;100.00
24825;BME280;12910;57.690;11.974;2023-04-15T12:13:55;100942.19;;;14.10;100.00
24825;BME280;12910;57.690;11.974;2023-04-15T12:16:22;100943.97;;;14.18;100.00
24825;BME280;12910;57.690;11.974;2023-04-15T12:18:55;100947.34;;;14.14;100.00
24825;BME280;12910;57.690;11.974;2023-04-15T12:21:23;100942.19;;;14.10;100.00
24825;BME280;12910;57.690;11.974;2023-04-15T12:23:52;100949.97;;;14.17;100.00
24825;BME280;12910;57.690;11.974;2023-04-15T12:26:25;100937.09;;;14.16;100.00
24825;BME280;12910;57.690;11.974;2023-04-15T12:28:55;100950.81;;;14.13;100.00
24825;BME280;12910;57.690;11.974;2023-04-15T12:31:24;100943.06;;;14.09;100.00
24825;BME280;12910;57.690;11.974;2023-04-15T12:33:49;100948.19;;;14.04;100.00
24825;BME280;12910;57.690;11.974;2023-04-15T12:36:15;100953.28;;;13.99;100.00
24825;BME280;12910;57.690;11.974;2023-04-15T12:38:40;100954.13;;;13.95;100.00
24825;BME280;12910;57.690;11.974;2023-04-15T12:41:06;100945.47;;;13.87;100.00
24825;BME280;12910;57.690;11.974;2023-04-15T12:43:31;100945.47;;;13.87;100.00
24825;BME280;12910;57.690;11.974;2023-04-15T12:45:56;100945.50;;;13.93;100.00
24825;BME280;12910;57.690;11.974;2023-04-15T12:48:22;100959.38;;;14.08;100.00
24825;BME280;12910;57.690;11.974;2023-04-15T12:50:47;100956.00;;;14.20;100.00